sensor_id;sensor_type;location;lat;lon;timestamp;P1;durP1;ratioP1;P2;durP2;ratioP2
4074;SDS011;2052;53.522;9.806;2023-06-22T00:02:00;8.07;;;6.57;;
4074;SDS011;2052;53.522;9.806;2023-06-22T00:04:28;8.30;;;6.37;;
4074;SDS011;2052;53.522;9.806;2023-06-22T00:06:55;8.27;;;6.33;;
4074;SDS011;2052;53.522;9.806;2023-06-22T00:09:22;7.40;;;6.30;;
4074;SDS011;2052;53.522;9.806;2023-06-22T00:11:48;7.47;;;6.33;;
4074;SDS011;2052;53.522;9.806;2023-06-22T00:14:16;8.80;;;6.73;;
4074;SDS011;2052;53.522;9.806;2023-06-22T00:16:43;8.50;;;6.70;;
4074;SDS011;2052;53.522;9.806;2023-06-22T00:19:13;8.23;;;6.73;;
4074;SDS011;2052;53.522;9.806;2023-06-22T00:21:40;7.10;;;6.33;;
4074;SDS011;2052;53.522;9.806;2023-06-22T00:24:07;8.60;;;6.80;;
4074;SDS011;2052;53.522;9.806;2023-06-22T00:26:34;8.83;;;7.70;;
4074;SDS011;2052;53.522;9.806;2023-06-22T00:29:00;10.00;;;7.13;;
4074;SDS011;2052;53.522;9.806;2023-06-22T00:31:30;8.70;;;7.17;;
4074;SDS011;2052;53.522;9.806;2023-06-22T00:33:56;8.93;;;7.87;;
4074;SDS011;2052;53.522;9.806;2023-06-22T00:36:23;12.33;;;7.93;;
4074;SDS011;2052;53.522;9.806;2023-06-22T00:38:49;13.53;;;8.77;;
4074;SDS011;2052;53.522;9.806;2023-06-22T00:41:16;19.43;;;8.37;;
4074;SDS011;2052;53.522;9.806;2023-06-22T00:43:43;10.13;;;8.10;;
4074;SDS011;2052;53.522;9.806;2023-06-22T00:46:09;11.03;;;7.93;;
4074;SDS011;2052;53.522;9.806;2023-06-22T00:48:37;12.10;;;8.30;;
4074;SDS011;2052;53.522;9.806;2023-06-22T00:51:06;10.10;;;7.63;;
4074;SDS011;2052;53.522;9.806;2023-06-22T00:53:33;17.17;;;10.20;;
4074;SDS011;2052;53.522;9.806;2023-06-22T00:56:02;13.80;;;10.70;;
4074;SDS011;2052;53.522;9.806;2023-06-22T00:58:29;11.97;;;10.27;;
4074;SDS011;2052;53.522;9.806;2023-06-22T01:00:56;13.40;;;10.03;;
4074;SDS011;2052;53.522;9.806;2023-06-22T01:03:22;14.40;;;10.60;;
4074;SDS011;2052;53.522;9.806;2023-06-22T01:05:50;15.07;;;10.27;;
4074;SDS011;2052;53.522;9.806;2023-06-22T01:08:27;14.50;;;10.63;;
4074;SDS011;2052;53.522;9.806;2023-06-22T01:10:58;12.23;;;9.33;;
4074;SDS011;2052;53.522;9.806;2023-06-22T01:13:32;15.50;;;10.70;;
4074;SDS011;2052;53.522;9.806;2023-06-22T01:16:02;11.23;;;9.17;;
4074;SDS011;2052;53.522;9.806;2023-06-22T01:18:30;12.93;;;9.53;;
4074;SDS011;2052;53.522;9.806;2023-06-22T01:21:03;12.70;;;10.47;;
4074;SDS011;2052;53.522;9.806;2023-06-22T01:23:36;14.23;;;10.17;;
4074;SDS011;2052;53.522;9.806;2023-06-22T01:26:10;13.60;;;11.07;;
4074;SDS011;2052;53.522;9.806;2023-06-22T01:28:46;15.87;;;11.20;;
4074;SDS011;2052;53.522;9.806;2023-06-22T01:31:16;12.80;;;10.60;;
4074;SDS011;2052;53.522;9.806;2023-06-22T01:33:45;14.23;;;11.30;;
4074;SDS011;2052;53.522;9.806;2023-06-22T01:36:14;11.93;;;9.63;;
4074;SDS011;2052;53.522;9.806;2023-06-22T01:38:40;18.00;;;12.40;;
4074;SDS011;2052;53.522;9.806;2023-06-22T01:41:08;15.27;;;10.90;;
4074;SDS011;2052;53.522;9.806;2023-06-22T01:43:35;18.13;;;11.67;;
4074;SDS011;2052;53.522;9.806;2023-06-22T01:46:03;17.73;;;11.40;;
4074;SDS011;2052;53.522;9.806;2023-06-22T01:48:30;13.10;;;10.77;;
4074;SDS011;2052;53.522;9.806;2023-06-22T01:50:57;19.37;;;13.13;;
4074;SDS011;2052;53.522;9.806;2023-06-22T01:53:24;14.10;;;11.50;;
4074;SDS011;2052;53.522;9.806;2023-06-22T01:55:51;21.83;;;13.60;;
4074;SDS011;2052;53.522;9.806;2023-06-22T01:58:18;20.37;;;14.67;;
4074;SDS011;2052;53.522;9.806;2023-06-22T02:00:47;18.47;;;12.50;;
4074;SDS011;2052;53.522;9.806;2023-06-22T02:03:18;14.63;;;11.90;;
4074;SDS011;2052;53.522;9.806;2023-06-22T02:05:48;19.10;;;14.13;;
4074;SDS011;2052;53.522;9.806;2023-06-22T02:08:17;20.83;;;14.53;;
4074;SDS011;2052;53.522;9.806;2023-06-22T02:10:48;20.33;;;15.03;;
4074;SDS011;2052;53.522;9.806;2023-06-22T02:13:15;22.20;;;15.87;;
4074;SDS011;2052;53.522;9.806;2023-06-22T02:15:42;22.03;;;15.87;;
4074;SDS011;2052;53.522;9.806;2023-06-22T02:18:09;18.93;;;14.10;;
4074;SDS011;2052;53.522;9.806;2023-06-22T02:20:39;20.03;;;13.37;;
4074;SDS011;2052;53.522;9.806;2023-06-22T02:23:06;18.67;;;13.60;;
4074;SDS011;2052;53.522;9.806;2023-06-22T02:25:33;24.80;;;14.80;;
4074;SDS011;2052;53.522;9.806;2023-06-22T02:28:00;18.60;;;14.13;;
4074;SDS011;2052;53.522;9.806;2023-06-22T02:30:27;24.33;;;14.53;;
4074;SDS011;2052;53.522;9.806;2023-06-22T02:32:54;24.00;;;13.37;;
4074;SDS011;2052;53.522;9.806;2023-06-22T02:35:24;21.17;;;12.90;;
4074;SDS011;2052;53.522;9.806;2023-06-22T02:37:53;23.70;;;13.27;;
4074;SDS011;2052;53.522;9.806;2023-06-22T02:40:19;19.43;;;13.83;;
4074;SDS011;2052;53.522;9.806;2023-06-22T02:42:46;16.20;;;12.43;;
4074;SDS011;2052;53.522;9.806;2023-06-22T02:45:12;22.20;;;13.60;;
4074;SDS011;2052;53.522;9.806;2023-06-22T02:47:39;22.33;;;14.50;;
4074;SDS011;2052;53.522;9.806;2023-06-22T02:50:06;22.53;;;15.93;;
4074;SDS011;2052;53.522;9.806;2023-06-22T02:52:33;23.20;;;16.40;;
4074;SDS011;2052;53.522;9.806;2023-06-22T02:55:01;24.77;;;15.63;;
4074;SDS011;2052;53.522;9.806;2023-06-22T02:57:28;20.43;;;15.10;;
4074;SDS011;2052;53.522;9.806;2023-06-22T02:59:54;19.80;;;13.60;;
4074;SDS011;2052;53.522;9.806;2023-06-22T03:02:21;19.90;;;15.57;;
4074;SDS011;2052;53.522;9.806;2023-06-22T03:04:48;19.20;;;14.27;;
4074;SDS011;2052;53.522;9.806;2023-06-22T03:07:15;22.97;;;15.00;;
4074;SDS011;2052;53.522;9.806;2023-06-22T03:09:42;20.60;;;14.07;;
4074;SDS011;2052;53.522;9.806;2023-06-22T03:12:10;19.90;;;14.30;;
4074;SDS011;2052;53.522;9.806;2023-06-22T03:14:37;25.00;;;14.50;;
4074;SDS011;2052;53.522;9.806;2023-06-22T03:17:04;20.33;;;14.33;;
4074;SDS011;2052;53.522;9.806;2023-06-22T03:19:31;22.53;;;14.93;;
4074;SDS011;2052;53.522;9.806;2023-06-22T03:21:59;22.03;;;14.47;;
4074;SDS011;2052;53.522;9.806;2023-06-22T03:24:26;22.87;;;15.00;;
4074;SDS011;2052;53.522;9.806;2023-06-22T03:26:54;25.13;;;14.63;;
4074;SDS011;2052;53.522;9.806;2023-06-22T03:29:23;28.27;;;15.53;;
4074;SDS011;2052;53.522;9.806;2023-06-22T03:31:54;20.97;;;14.40;;
4074;SDS011;2052;53.522;9.806;2023-06-22T03:34:20;21.50;;;14.00;;
4074;SDS011;2052;53.522;9.806;2023-06-22T03:36:47;23.07;;;13.60;;
4074;SDS011;2052;53.522;9.806;2023-06-22T03:39:13;18.70;;;13.63;;
4074;SDS011;2052;53.522;9.806;2023-06-22T03:41:40;21.43;;;13.50;;
4074;SDS011;2052;53.522;9.806;2023-06-22T03:44:07;20.47;;;14.67;;
4074;SDS011;2052;53.522;9.806;2023-06-22T03:46:37;19.10;;;14.10;;
4074;SDS011;2052;53.522;9.806;2023-06-22T03:49:03;20.50;;;14.30;;
4074;SDS011;2052;53.522;9.806;2023-06-22T03:51:30;15.37;;;12.47;;
4074;SDS011;2052;53.522;9.806;2023-06-22T03:53:57;17.63;;;12.93;;
4074;SDS011;2052;53.522;9.806;2023-06-22T03:56:23;17.20;;;11.10;;
4074;SDS011;2052;53.522;9.806;2023-06-22T03:58:50;14.87;;;11.10;;
4074;SDS011;2052;53.522;9.806;2023-06-22T04:01:17;15.03;;;11.20;;
4074;SDS011;2052;53.522;9.806;2023-06-22T04:03:45;16.63;;;10.87;;
4074;SDS011;2052;53.522;9.806;2023-06-22T04:06:13;16.30;;;11.00;;
4074;SDS011;2052;53.522;9.806;2023-06-22T04:08:40;14.87;;;10.67;;
4074;SDS011;2052;53.522;9.806;2023-06-22T04:11:07;14.57;;;11.40;;
4074;SDS011;2052;53.522;9.806;2023-06-22T04:13:33;10.63;;;9.10;;
4074;SDS011;2052;53.522;9.806;2023-06-22T04:16:00;11.30;;;10.10;;
4074;SDS011;2052;53.522;9.806;2023-06-22T04:18:27;12.10;;;9.90;;
4074;SDS011;2052;53.522;9.806;2023-06-22T04:20:57;16.10;;;10.27;;
4074;SDS011;2052;53.522;9.806;2023-06-22T04:23:24;11.40;;;8.30;;
4074;SDS011;2052;53.522;9.806;2023-06-22T04:25:50;15.27;;;9.93;;
4074;SDS011;2052;53.522;9.806;2023-06-22T04:28:17;13.57;;;10.80;;
4074;SDS011;2052;53.522;9.806;2023-06-22T04:30:44;11.03;;;9.90;;
4074;SDS011;2052;53.522;9.806;2023-06-22T04:33:12;13.67;;;10.10;;
4074;SDS011;2052;53.522;9.806;2023-06-22T04:35:39;19.40;;;9.30;;
4074;SDS011;2052;53.522;9.806;2023-06-22T04:38:07;13.40;;;9.70;;
4074;SDS011;2052;53.522;9.806;2023-06-22T04:40:34;12.57;;;10.83;;
4074;SDS011;2052;53.522;9.806;2023-06-22T04:43:01;14.43;;;10.23;;
4074;SDS011;2052;53.522;9.806;2023-06-22T04:45:31;13.00;;;10.90;;
4074;SDS011;2052;53.522;9.806;2023-06-22T04:47:57;10.60;;;9.20;;
4074;SDS011;2052;53.522;9.806;2023-06-22T04:50:24;11.83;;;10.10;;
4074;SDS011;2052;53.522;9.806;2023-06-22T04:52:51;14.13;;;9.97;;
4074;SDS011;2052;53.522;9.806;2023-06-22T04:55:19;12.50;;;9.80;;
4074;SDS011;2052;53.522;9.806;2023-06-22T04:57:46;17.20;;;10.37;;
4074;SDS011;2052;53.522;9.806;2023-06-22T05:00:14;17.70;;;9.80;;
4074;SDS011;2052;53.522;9.806;2023-06-22T05:02:42;14.27;;;10.03;;
4074;SDS011;2052;53.522;9.806;2023-06-22T05:05:10;11.00;;;8.60;;
4074;SDS011;2052;53.522;9.806;2023-06-22T05:07:38;11.13;;;8.53;;
4074;SDS011;2052;53.522;9.806;2023-06-22T05:10:08;11.73;;;8.43;;
4074;SDS011;2052;53.522;9.806;2023-06-22T05:12:37;13.60;;;8.60;;
4074;SDS011;2052;53.522;9.806;2023-06-22T05:15:04;12.17;;;8.37;;
4074;SDS011;2052;53.522;9.806;2023-06-22T05:17:31;15.23;;;8.13;;
4074;SDS011;2052;53.522;9.806;2023-06-22T05:19:58;15.80;;;9.60;;
4074;SDS011;2052;53.522;9.806;2023-06-22T05:22:24;11.50;;;8.50;;
4074;SDS011;2052;53.522;9.806;2023-06-22T05:24:51;9.77;;;7.70;;
4074;SDS011;2052;53.522;9.806;2023-06-22T05:27:17;14.57;;;9.00;;
4074;SDS011;2052;53.522;9.806;2023-06-22T05:29:45;12.70;;;9.13;;
4074;SDS011;2052;53.522;9.806;2023-06-22T05:32:12;12.40;;;8.50;;
4074;SDS011;2052;53.522;9.806;2023-06-22T05:34:39;11.33;;;8.40;;
4074;SDS011;2052;53.522;9.806;2023-06-22T05:37:06;13.07;;;7.90;;
4074;SDS011;2052;53.522;9.806;2023-06-22T05:39:34;11.07;;;7.60;;
4074;SDS011;2052;53.522;9.806;2023-06-22T05:42:03;10.27;;;7.70;;
4074;SDS011;2052;53.522;9.806;2023-06-22T05:44:30;7.20;;;6.30;;
4074;SDS011;2052;53.522;9.806;2023-06-22T05:46:58;11.13;;;7.60;;
4074;SDS011;2052;53.522;9.806;2023-06-22T05:49:25;10.70;;;7.40;;
4074;SDS011;2052;53.522;9.806;2023-06-22T05:51:54;10.80;;;7.63;;
4074;SDS011;2052;53.522;9.806;2023-06-22T05:54:21;9.40;;;8.13;;
4074;SDS011;2052;53.522;9.806;2023-06-22T05:56:47;10.07;;;7.50;;
4074;SDS011;2052;53.522;9.806;2023-06-22T05:59:14;8.60;;;7.00;;
4074;SDS011;2052;53.522;9.806;2023-06-22T06:01:41;9.33;;;7.20;;
4074;SDS011;2052;53.522;9.806;2023-06-22T06:04:09;15.80;;;8.63;;
4074;SDS011;2052;53.522;9.806;2023-06-22T06:06:35;11.50;;;6.67;;
4074;SDS011;2052;53.522;9.806;2023-06-22T06:09:03;7.70;;;6.53;;
4074;SDS011;2052;53.522;9.806;2023-06-22T06:11:29;10.60;;;7.00;;
4074;SDS011;2052;53.522;9.806;2023-06-22T06:13:56;8.57;;;6.17;;
4074;SDS011;2052;53.522;9.806;2023-06-22T06:16:23;8.67;;;7.07;;
4074;SDS011;2052;53.522;9.806;2023-06-22T06:18:49;8.90;;;7.13;;
4074;SDS011;2052;53.522;9.806;2023-06-22T06:21:17;7.67;;;5.60;;
4074;SDS011;2052;53.522;9.806;2023-06-22T06:23:44;8.27;;;5.40;;
4074;SDS011;2052;53.522;9.806;2023-06-22T06:26:12;10.20;;;6.30;;
4074;SDS011;2052;53.522;9.806;2023-06-22T06:28:41;7.50;;;6.20;;
4074;SDS011;2052;53.522;9.806;2023-06-22T06:31:08;8.50;;;5.60;;
4074;SDS011;2052;53.522;9.806;2023-06-22T06:33:34;7.10;;;6.00;;
4074;SDS011;2052;53.522;9.806;2023-06-22T06:36:01;7.83;;;6.73;;
4074;SDS011;2052;53.522;9.806;2023-06-22T06:38:30;7.27;;;6.20;;
4074;SDS011;2052;53.522;9.806;2023-06-22T06:40:58;7.57;;;6.23;;
4074;SDS011;2052;53.522;9.806;2023-06-22T06:43:25;8.13;;;6.40;;
4074;SDS011;2052;53.522;9.806;2023-06-22T06:45:52;9.97;;;5.47;;
4074;SDS011;2052;53.522;9.806;2023-06-22T06:48:19;8.50;;;5.03;;
4074;SDS011;2052;53.522;9.806;2023-06-22T06:50:45;6.23;;;4.43;;
4074;SDS011;2052;53.522;9.806;2023-06-22T06:53:12;8.10;;;5.60;;
4074;SDS011;2052;53.522;9.806;2023-06-22T06:55:41;7.03;;;4.60;;
4074;SDS011;2052;53.522;9.806;2023-06-22T06:58:08;7.17;;;4.83;;
4074;SDS011;2052;53.522;9.806;2023-06-22T07:00:38;6.03;;;4.30;;
4074;SDS011;2052;53.522;9.806;2023-06-22T07:03:04;9.10;;;4.40;;
4074;SDS011;2052;53.522;9.806;2023-06-22T07:05:32;7.57;;;4.07;;
4074;SDS011;2052;53.522;9.806;2023-06-22T07:07:58;5.27;;;4.23;;
4074;SDS011;2052;53.522;9.806;2023-06-22T07:10:25;4.40;;;4.00;;
4074;SDS011;2052;53.522;9.806;2023-06-22T07:12:53;7.87;;;4.93;;
4074;SDS011;2052;53.522;9.806;2023-06-22T07:15:20;5.20;;;3.70;;
4074;SDS011;2052;53.522;9.806;2023-06-22T07:17:46;4.00;;;3.23;;
4074;SDS011;2052;53.522;9.806;2023-06-22T07:20:13;6.10;;;3.50;;
4074;SDS011;2052;53.522;9.806;2023-06-22T07:22:40;3.63;;;3.27;;
4074;SDS011;2052;53.522;9.806;2023-06-22T07:25:08;3.30;;;3.00;;
4074;SDS011;2052;53.522;9.806;2023-06-22T07:27:36;3.73;;;3.40;;
4074;SDS011;2052;53.522;9.806;2023-06-22T07:30:07;5.40;;;3.47;;
4074;SDS011;2052;53.522;9.806;2023-06-22T07:32:34;4.13;;;3.63;;
4074;SDS011;2052;53.522;9.806;2023-06-22T07:35:02;3.90;;;3.50;;
4074;SDS011;2052;53.522;9.806;2023-06-22T07:37:29;4.63;;;3.63;;
4074;SDS011;2052;53.522;9.806;2023-06-22T07:39:58;7.97;;;3.90;;
4074;SDS011;2052;53.522;9.806;2023-06-22T07:42:24;4.10;;;3.63;;
4074;SDS011;2052;53.522;9.806;2023-06-22T07:44:51;4.90;;;3.53;;
4074;SDS011;2052;53.522;9.806;2023-06-22T07:47:19;8.00;;;4.07;;
4074;SDS011;2052;53.522;9.806;2023-06-22T07:49:46;7.57;;;3.50;;
4074;SDS011;2052;53.522;9.806;2023-06-22T07:52:14;5.70;;;3.60;;
4074;SDS011;2052;53.522;9.806;2023-06-22T07:54:41;6.10;;;3.83;;
4074;SDS011;2052;53.522;9.806;2023-06-22T07:57:07;6.73;;;3.97;;
4074;SDS011;2052;53.522;9.806;2023-06-22T07:59:39;8.20;;;4.10;;
4074;SDS011;2052;53.522;9.806;2023-06-22T08:02:06;7.20;;;4.10;;
4074;SDS011;2052;53.522;9.806;2023-06-22T08:04:38;8.30;;;3.70;;
4074;SDS011;2052;53.522;9.806;2023-06-22T08:07:05;6.90;;;4.37;;
4074;SDS011;2052;53.522;9.806;2023-06-22T08:09:31;6.90;;;4.17;;
4074;SDS011;2052;53.522;9.806;2023-06-22T08:11:59;5.60;;;3.37;;
4074;SDS011;2052;53.522;9.806;2023-06-22T08:14:26;8.30;;;3.70;;
4074;SDS011;2052;53.522;9.806;2023-06-22T08:16:53;5.93;;;4.20;;
4074;SDS011;2052;53.522;9.806;2023-06-22T08:19:19;4.67;;;3.77;;
4074;SDS011;2052;53.522;9.806;2023-06-22T08:21:47;8.83;;;3.60;;
4074;SDS011;2052;53.522;9.806;2023-06-22T08:24:15;5.37;;;3.47;;
4074;SDS011;2052;53.522;9.806;2023-06-22T08:26:42;7.83;;;4.30;;
4074;SDS011;2052;53.522;9.806;2023-06-22T08:29:08;7.63;;;3.20;;
4074;SDS011;2052;53.522;9.806;2023-06-22T08:31:35;4.73;;;3.80;;
4074;SDS011;2052;53.522;9.806;2023-06-22T08:34:02;8.37;;;4.10;;
4074;SDS011;2052;53.522;9.806;2023-06-22T08:36:29;5.20;;;3.47;;
4074;SDS011;2052;53.522;9.806;2023-06-22T08:39:06;5.60;;;3.70;;
4074;SDS011;2052;53.522;9.806;2023-06-22T08:41:33;9.23;;;2.93;;
4074;SDS011;2052;53.522;9.806;2023-06-22T08:44:00;5.50;;;3.17;;
4074;SDS011;2052;53.522;9.806;2023-06-22T08:46:27;9.23;;;2.90;;
4074;SDS011;2052;53.522;9.806;2023-06-22T08:48:58;2.97;;;2.67;;
4074;SDS011;2052;53.522;9.806;2023-06-22T08:51:25;4.57;;;3.37;;
4074;SDS011;2052;53.522;9.806;2023-06-22T08:53:52;5.57;;;2.93;;
4074;SDS011;2052;53.522;9.806;2023-06-22T08:56:20;9.95;;;3.15;;
4074;SDS011;2052;53.522;9.806;2023-06-22T08:58:46;4.25;;;2.50;;
4074;SDS011;2052;53.522;9.806;2023-06-22T09:01:13;5.37;;;2.77;;
4074;SDS011;2052;53.522;9.806;2023-06-22T09:03:40;5.63;;;3.70;;
4074;SDS011;2052;53.522;9.806;2023-06-22T09:06:07;4.83;;;3.07;;
4074;SDS011;2052;53.522;9.806;2023-06-22T09:08:34;3.90;;;3.30;;
4074;SDS011;2052;53.522;9.806;2023-06-22T09:11:01;6.13;;;3.17;;
4074;SDS011;2052;53.522;9.806;2023-06-22T09:13:30;3.50;;;3.00;;
4074;SDS011;2052;53.522;9.806;2023-06-22T09:15:57;7.27;;;3.53;;
4074;SDS011;2052;53.522;9.806;2023-06-22T09:18:23;6.33;;;3.10;;
4074;SDS011;2052;53.522;9.806;2023-06-22T09:20:50;9.57;;;3.70;;
4074;SDS011;2052;53.522;9.806;2023-06-22T09:23:16;8.10;;;2.87;;
4074;SDS011;2052;53.522;9.806;2023-06-22T09:25:43;5.10;;;3.57;;
4074;SDS011;2052;53.522;9.806;2023-06-22T09:28:12;5.50;;;3.80;;
4074;SDS011;2052;53.522;9.806;2023-06-22T09:30:40;3.60;;;3.30;;
4074;SDS011;2052;53.522;9.806;2023-06-22T09:33:06;8.87;;;4.63;;
4074;SDS011;2052;53.522;9.806;2023-06-22T09:35:33;5.93;;;3.10;;
4074;SDS011;2052;53.522;9.806;2023-06-22T09:37:59;5.30;;;4.13;;
4074;SDS011;2052;53.522;9.806;2023-06-22T09:40:26;5.23;;;3.63;;
4074;SDS011;2052;53.522;9.806;2023-06-22T09:42:52;6.57;;;3.60;;
4074;SDS011;2052;53.522;9.806;2023-06-22T09:45:19;7.30;;;4.27;;
4074;SDS011;2052;53.522;9.806;2023-06-22T09:47:47;6.37;;;3.90;;
4074;SDS011;2052;53.522;9.806;2023-06-22T09:50:14;4.37;;;3.10;;
4074;SDS011;2052;53.522;9.806;2023-06-22T09:52:41;6.93;;;4.00;;
4074;SDS011;2052;53.522;9.806;2023-06-22T09:55:09;10.70;;;3.50;;
4074;SDS011;2052;53.522;9.806;2023-06-22T09:57:36;4.07;;;3.47;;
4074;SDS011;2052;53.522;9.806;2023-06-22T10:00:03;8.00;;;3.40;;
4074;SDS011;2052;53.522;9.806;2023-06-22T10:02:33;4.03;;;3.53;;
4074;SDS011;2052;53.522;9.806;2023-06-22T10:05:02;4.50;;;3.00;;
4074;SDS011;2052;53.522;9.806;2023-06-22T10:07:29;3.57;;;3.00;;
4074;SDS011;2052;53.522;9.806;2023-06-22T10:09:56;4.50;;;3.70;;
4074;SDS011;2052;53.522;9.806;2023-06-22T10:12:22;7.63;;;3.60;;
4074;SDS011;2052;53.522;9.806;2023-06-22T10:14:49;3.23;;;2.93;;
4074;SDS011;2052;53.522;9.806;2023-06-22T10:17:16;4.10;;;3.70;;
4074;SDS011;2052;53.522;9.806;2023-06-22T10:19:42;4.47;;;3.50;;
4074;SDS011;2052;53.522;9.806;2023-06-22T10:22:10;7.27;;;3.90;;
4074;SDS011;2052;53.522;9.806;2023-06-22T10:24:37;5.80;;;3.63;;
4074;SDS011;2052;53.522;9.806;2023-06-22T10:27:09;5.03;;;3.67;;
4074;SDS011;2052;53.522;9.806;2023-06-22T10:29:36;5.00;;;3.30;;
4074;SDS011;2052;53.522;9.806;2023-06-22T10:32:03;6.70;;;5.40;;
4074;SDS011;2052;53.522;9.806;2023-06-22T10:34:31;5.93;;;3.23;;
4074;SDS011;2052;53.522;9.806;2023-06-22T10:36:59;6.00;;;3.47;;
4074;SDS011;2052;53.522;9.806;2023-06-22T10:39:27;7.53;;;3.87;;
4074;SDS011;2052;53.522;9.806;2023-06-22T10:41:53;6.17;;;3.60;;
4074;SDS011;2052;53.522;9.806;2023-06-22T10:44:21;7.23;;;4.30;;
4074;SDS011;2052;53.522;9.806;2023-06-22T10:46:47;8.43;;;4.30;;
4074;SDS011;2052;53.522;9.806;2023-06-22T10:49:14;4.97;;;4.00;;
4074;SDS011;2052;53.522;9.806;2023-06-22T10:51:41;5.43;;;3.53;;
4074;SDS011;2052;53.522;9.806;2023-06-22T10:54:07;5.77;;;3.80;;
4074;SDS011;2052;53.522;9.806;2023-06-22T10:56:35;3.73;;;3.43;;
4074;SDS011;2052;53.522;9.806;2023-06-22T10:59:02;7.93;;;3.40;;
4074;SDS011;2052;53.522;9.806;2023-06-22T11:01:28;5.90;;;4.40;;
4074;SDS011;2052;53.522;9.806;2023-06-22T11:03:56;4.60;;;4.07;;
4074;SDS011;2052;53.522;9.806;2023-06-22T11:06:22;8.50;;;4.37;;
4074;SDS011;2052;53.522;9.806;2023-06-22T11:08:49;4.17;;;3.70;;
4074;SDS011;2052;53.522;9.806;2023-06-22T11:11:16;7.40;;;5.30;;
4074;SDS011;2052;53.522;9.806;2023-06-22T11:13:44;5.80;;;4.90;;
4074;SDS011;2052;53.522;9.806;2023-06-22T11:16:11;5.83;;;4.50;;
4074;SDS011;2052;53.522;9.806;2023-06-22T11:18:37;4.50;;;3.87;;
4074;SDS011;2052;53.522;9.806;2023-06-22T11:21:04;4.43;;;3.97;;
4074;SDS011;2052;53.522;9.806;2023-06-22T11:23:30;5.83;;;4.80;;
4074;SDS011;2052;53.522;9.806;2023-06-22T11:25:57;6.93;;;4.33;;
4074;SDS011;2052;53.522;9.806;2023-06-22T11:28:23;4.43;;;4.03;;
4074;SDS011;2052;53.522;9.806;2023-06-22T11:30:51;4.60;;;4.13;;
4074;SDS011;2052;53.522;9.806;2023-06-22T11:33:18;4.40;;;3.83;;
4074;SDS011;2052;53.522;9.806;2023-06-22T11:35:45;5.80;;;4.30;;
4074;SDS011;2052;53.522;9.806;2023-06-22T11:38:11;6.27;;;4.40;;
4074;SDS011;2052;53.522;9.806;2023-06-22T11:40:40;4.23;;;3.83;;
4074;SDS011;2052;53.522;9.806;2023-06-22T11:43:07;5.37;;;4.07;;
4074;SDS011;2052;53.522;9.806;2023-06-22T11:45:33;4.47;;;4.07;;
4074;SDS011;2052;53.522;9.806;2023-06-22T11:48:01;7.17;;;4.70;;
4074;SDS011;2052;53.522;9.806;2023-06-22T11:50:28;5.80;;;4.63;;
4074;SDS011;2052;53.522;9.806;2023-06-22T11:52:59;6.13;;;5.47;;
4074;SDS011;2052;53.522;9.806;2023-06-22T11:55:25;5.50;;;5.00;;
4074;SDS011;2052;53.522;9.806;2023-06-22T11:57:54;6.30;;;5.37;;
4074;SDS011;2052;53.522;9.806;2023-06-22T12:00:23;7.23;;;4.83;;
4074;SDS011;2052;53.522;9.806;2023-06-22T12:02:51;5.90;;;4.43;;
4074;SDS011;2052;53.522;9.806;2023-06-22T12:05:21;8.80;;;5.00;;
4074;SDS011;2052;53.522;9.806;2023-06-22T12:07:57;5.63;;;4.67;;
4074;SDS011;2052;53.522;9.806;2023-06-22T12:10:25;5.67;;;5.17;;
4074;SDS011;2052;53.522;9.806;2023-06-22T12:12:53;5.93;;;5.00;;
4074;SDS011;2052;53.522;9.806;2023-06-22T12:15:20;5.57;;;4.97;;
4074;SDS011;2052;53.522;9.806;2023-06-22T12:17:46;4.90;;;4.50;;
4074;SDS011;2052;53.522;9.806;2023-06-22T12:20:13;7.17;;;4.57;;
4074;SDS011;2052;53.522;9.806;2023-06-22T12:22:43;6.80;;;5.10;;
4074;SDS011;2052;53.522;9.806;2023-06-22T12:25:09;6.37;;;5.17;;
4074;SDS011;2052;53.522;9.806;2023-06-22T12:27:37;5.47;;;4.73;;
4074;SDS011;2052;53.522;9.806;2023-06-22T12:30:04;4.13;;;3.77;;
4074;SDS011;2052;53.522;9.806;2023-06-22T12:32:32;4.93;;;4.53;;
4074;SDS011;2052;53.522;9.806;2023-06-22T12:34:58;5.57;;;4.97;;
4074;SDS011;2052;53.522;9.806;2023-06-22T12:37:25;5.03;;;4.63;;
4074;SDS011;2052;53.522;9.806;2023-06-22T12:39:55;6.70;;;5.27;;
4074;SDS011;2052;53.522;9.806;2023-06-22T12:42:22;8.00;;;5.90;;
4074;SDS011;2052;53.522;9.806;2023-06-22T12:44:48;5.63;;;4.80;;
4074;SDS011;2052;53.522;9.806;2023-06-22T12:47:15;9.40;;;4.93;;
4074;SDS011;2052;53.522;9.806;2023-06-22T12:49:41;6.60;;;5.17;;
4074;SDS011;2052;53.522;9.806;2023-06-22T12:52:08;7.17;;;5.37;;
4074;SDS011;2052;53.522;9.806;2023-06-22T12:54:35;5.80;;;5.30;;
4074;SDS011;2052;53.522;9.806;2023-06-22T12:57:03;7.10;;;5.53;;
4074;SDS011;2052;53.522;9.806;2023-06-22T12:59:32;8.03;;;6.27;;
4074;SDS011;2052;53.522;9.806;2023-06-22T13:01:59;7.23;;;6.57;;
4074;SDS011;2052;53.522;9.806;2023-06-22T13:04:26;6.47;;;5.87;;
4074;SDS011;2052;53.522;9.806;2023-06-22T13:06:52;11.33;;;7.00;;
4074;SDS011;2052;53.522;9.806;2023-06-22T13:09:19;8.00;;;6.90;;
4074;SDS011;2052;53.522;9.806;2023-06-22T13:11:45;9.30;;;6.47;;
4074;SDS011;2052;53.522;9.806;2023-06-22T13:14:13;10.30;;;6.70;;
4074;SDS011;2052;53.522;9.806;2023-06-22T13:16:41;8.83;;;6.20;;
4074;SDS011;2052;53.522;9.806;2023-06-22T13:19:07;6.47;;;5.80;;
4074;SDS011;2052;53.522;9.806;2023-06-22T13:21:39;7.33;;;6.60;;
4074;SDS011;2052;53.522;9.806;2023-06-22T13:24:07;7.70;;;6.40;;
4074;SDS011;2052;53.522;9.806;2023-06-22T13:26:36;6.77;;;5.90;;
4074;SDS011;2052;53.522;9.806;2023-06-22T13:29:02;6.50;;;5.50;;
4074;SDS011;2052;53.522;9.806;2023-06-22T13:31:30;10.03;;;5.63;;
4074;SDS011;2052;53.522;9.806;2023-06-22T13:33:58;6.10;;;5.50;;
4074;SDS011;2052;53.522;9.806;2023-06-22T13:36:26;7.43;;;6.03;;
4074;SDS011;2052;53.522;9.806;2023-06-22T13:38:55;7.70;;;6.17;;
4074;SDS011;2052;53.522;9.806;2023-06-22T13:41:22;5.40;;;4.90;;
4074;SDS011;2052;53.522;9.806;2023-06-22T13:43:48;10.23;;;6.10;;
4074;SDS011;2052;53.522;9.806;2023-06-22T13:46:15;7.07;;;6.10;;
4074;SDS011;2052;53.522;9.806;2023-06-22T13:48:43;5.80;;;5.20;;
4074;SDS011;2052;53.522;9.806;2023-06-22T13:51:09;5.67;;;5.17;;
4074;SDS011;2052;53.522;9.806;2023-06-22T13:53:38;6.47;;;5.87;;
4074;SDS011;2052;53.522;9.806;2023-06-22T13:56:05;7.30;;;6.60;;
4074;SDS011;2052;53.522;9.806;2023-06-22T14:06:19;5.63;;;5.13;;
4074;SDS011;2052;53.522;9.806;2023-06-22T14:21:43;7.00;;;5.40;;
4074;SDS011;2052;53.522;9.806;2023-06-22T14:24:09;8.47;;;6.37;;
4074;SDS011;2052;53.522;9.806;2023-06-22T14:26:36;6.80;;;5.97;;
4074;SDS011;2052;53.522;9.806;2023-06-22T14:29:03;5.47;;;4.97;;
4074;SDS011;2052;53.522;9.806;2023-06-22T14:31:30;5.37;;;4.90;;
4074;SDS011;2052;53.522;9.806;2023-06-22T14:33:56;6.53;;;5.93;;
4074;SDS011;2052;53.522;9.806;2023-06-22T14:36:23;6.93;;;5.30;;
4074;SDS011;2052;53.522;9.806;2023-06-22T14:38:51;11.93;;;5.80;;
4074;SDS011;2052;53.522;9.806;2023-06-22T14:41:18;9.27;;;7.03;;
4074;SDS011;2052;53.522;9.806;2023-06-22T14:43:45;6.17;;;5.57;;
4074;SDS011;2052;53.522;9.806;2023-06-22T14:46:12;6.40;;;5.80;;
4074;SDS011;2052;53.522;9.806;2023-06-22T14:48:40;19.93;;;8.23;;
4074;SDS011;2052;53.522;9.806;2023-06-22T14:51:07;6.87;;;6.17;;
4074;SDS011;2052;53.522;9.806;2023-06-22T14:53:33;8.47;;;5.77;;
4074;SDS011;2052;53.522;9.806;2023-06-22T14:56:01;6.30;;;5.70;;
4074;SDS011;2052;53.522;9.806;2023-06-22T14:58:28;6.20;;;5.60;;
4074;SDS011;2052;53.522;9.806;2023-06-22T15:00:58;6.80;;;5.63;;
4074;SDS011;2052;53.522;9.806;2023-06-22T15:03:25;7.20;;;5.80;;
4074;SDS011;2052;53.522;9.806;2023-06-22T15:05:53;7.07;;;6.00;;
4074;SDS011;2052;53.522;9.806;2023-06-22T15:08:23;11.43;;;5.97;;
4074;SDS011;2052;53.522;9.806;2023-06-22T15:10:49;6.80;;;6.10;;
4074;SDS011;2052;53.522;9.806;2023-06-22T15:13:18;7.60;;;6.07;;
4074;SDS011;2052;53.522;9.806;2023-06-22T15:15:45;6.93;;;5.90;;
4074;SDS011;2052;53.522;9.806;2023-06-22T15:18:12;6.50;;;5.90;;
4074;SDS011;2052;53.522;9.806;2023-06-22T15:20:39;6.00;;;5.40;;
4074;SDS011;2052;53.522;9.806;2023-06-22T15:23:06;6.00;;;5.50;;
4074;SDS011;2052;53.522;9.806;2023-06-22T15:25:33;10.90;;;5.90;;
4074;SDS011;2052;53.522;9.806;2023-06-22T15:28:00;6.73;;;5.70;;
4074;SDS011;2052;53.522;9.806;2023-06-22T15:30:28;8.37;;;6.70;;